Stations météo

réclame
Mon MeteoGroup
Paganella, Italie (16022): Température de l'air & dewpoint: 08.08.2018 19:00:00 - 14.08.2018 19:00:00 (CEST)Paganella, Italie (16022): Vitesse du vent: 08.08.2018 19:00:00 - 14.08.2018 19:00:00 (CEST)Paganella, Italie (16022): Direction du vent: 08.08.2018 19:00:00 - 14.08.2018 19:00:00 (CEST)Paganella, Italie (16022): visibility: 08.08.2018 19:00:00 - 14.08.2018 19:00:00 (CEST)Paganella, Italie (16022): Ensoleillement: 08.08.2018 19:00:00 - 14.08.2018 19:00:00 (CEST)
Date & Time tt [°C] td [°C] ff [km/h] ff [knt] dd vv [km] sd [min]
14.08.2018 19:00:00 11,6 7,9 0 0 N 10 18
14.08.2018 18:00:00 10,4 3,4 8 4 N 20 24
14.08.2018 17:00:00 12,4 6,7 4 2 N 60 0
14.08.2018 16:00:00 12,2 7,5 5 3 N 60 6
14.08.2018 15:00:00 12,6 6,9 8 4 N 50 0
14.08.2018 14:00:00 12,0 5,0 5 3 N 40 0
14.08.2018 13:00:00 11,2 5,1 11 6 N 60 12
14.08.2018 12:00:00 10,8 5,4 11 6 N 60 0
14.08.2018 11:00:00 10,6 5,8 8 4 N 50 0
14.08.2018 10:00:00 9,6 5,4 11 6 N 60 0
14.08.2018 09:00:00 9,4 5,4 9 5 N 60 0
14.08.2018 08:00:00 9,0 5,8 8 4 N 50 0
14.08.2018 07:00:00 9,2 8,0 8 4 N 50 0
14.08.2018 06:00:00 9,2 7,3 5 3 N 50 -
14.08.2018 05:00:00 9,0 8,7 0 0 N 0,3 -
14.08.2018 04:00:00 9,6 9,1 0 0 N 0,3 -
14.08.2018 03:00:00 9,8 9,2 4 2 SSW 0,3 -
14.08.2018 02:00:00 9,8 9,2 8 4 SSW 0,3 -
14.08.2018 01:00:00 10,0 9,5 13 7 SSW - -
14.08.2018 00:00:00 10,0 9,7 15 8 SSW - -
13.08.2018 23:00:00 10,2 9,9 29 16 SSW - -
13.08.2018 22:00:00 10,6 10,6 34 18 SW - -
13.08.2018 21:00:00 11,0 11,0 28 15 SSW - 0
13.08.2018 20:00:00 11,0 11,0 18 10 SSW - 0
13.08.2018 19:00:00 11,2 11,2 34 18 SW - 0
13.08.2018 18:00:00 12,0 10,2 37 20 SW 0,3 0
13.08.2018 17:00:00 12,0 7,1 35 19 SW 10 0
13.08.2018 16:00:00 13,0 10,2 39 21 WSW 10 6
13.08.2018 15:00:00 12,8 10,7 29 16 SW 10 0
13.08.2018 14:00:00 16,0 11,4 28 15 SSW 10 60
13.08.2018 13:00:00 14,0 11,0 18 10 SW 10 30
13.08.2018 12:00:00 13,2 12,4 15 8 SW 0,9 18
13.08.2018 11:00:00 12,4 10,0 13 7 SSW 0,9 18
13.08.2018 10:00:00 12,0 9,7 15 8 S 0,8 0
13.08.2018 09:00:00 11,6 10,0 5 3 SSW 0,9 12
13.08.2018 08:00:00 11,2 9,6 4 2 N 0,9 24
13.08.2018 07:00:00 10,2 9,4 0 0 N 10 6
13.08.2018 06:00:00 10,0 9,1 0 0 N 12 -
13.08.2018 05:00:00 9,8 9,0 4 2 N 0,3 -
13.08.2018 04:00:00 10,0 9,1 4 2 N - -
13.08.2018 03:00:00 10,0 10,0 5 3 SSW - -
13.08.2018 02:00:00 10,0 10,0 15 8 SSW - -
13.08.2018 01:00:00 10,0 9,2 13 7 SSW 10 -
13.08.2018 00:00:00 10,0 8,8 9 5 WSW 20 -
12.08.2018 23:00:00 10,8 8,4 8 4 W 20 -
12.08.2018 22:00:00 11,0 8,6 9 5 W 20 -
12.08.2018 21:00:00 10,6 9,8 9 5 WSW 20 0
12.08.2018 20:00:00 11,0 9,6 29 16 WSW 0,1 6
12.08.2018 19:00:00 12,0 8,7 22 12 SSW 20 6
12.08.2018 18:00:00 12,2 6,9 26 14 SW 20 0
12.08.2018 17:00:00 11,2 7,9 29 16 SW 10 0
12.08.2018 16:00:00 13,6 10,2 18 10 SSW 10 12
12.08.2018 15:00:00 14,6 10,0 11 6 SSW 10 12
12.08.2018 14:00:00 12,0 8,1 11 6 SSW 10 0
12.08.2018 13:00:00 12,2 9,6 15 8 SSW 0,9 0
12.08.2018 12:00:00 12,8 9,8 11 6 S - 6
12.08.2018 11:00:00 12,6 9,4 9 5 S 0,9 36
12.08.2018 10:00:00 11,2 9,3 16 9 S 0,6 12
12.08.2018 09:00:00 10,6 9,8 16 9 SSE 0,9 6
12.08.2018 08:00:00 10,0 10,0 8 4 SSE - 0
12.08.2018 07:00:00 10,0 10,0 13 7 S - 0
12.08.2018 06:00:00 10,2 10,2 16 9 S - -
12.08.2018 05:00:00 10,4 10,4 9 5 S - -
12.08.2018 04:00:00 10,6 10,0 15 8 S - -
12.08.2018 03:00:00 10,8 10,5 15 8 SSW - -
12.08.2018 02:00:00 10,8 10,8 13 7 S - -
12.08.2018 01:00:00 10,8 10,8 8 4 S - -
12.08.2018 00:00:00 11,2 10,3 4 2 S 0,3 -
11.08.2018 23:00:00 11,6 9,7 9 5 SSW 15 -
11.08.2018 22:00:00 12,2 9,0 9 5 WSW 25 -
11.08.2018 21:00:00 12,4 8,9 5 3 N 50 0
11.08.2018 20:00:00 14,6 9,0 15 8 SW 50 12
11.08.2018 19:00:00 14,2 7,7 22 12 W 50 36
11.08.2018 18:00:00 16,0 8,2 24 13 SW 50 60
11.08.2018 17:00:00 16,8 7,7 13 7 SSW 40 60
11.08.2018 16:00:00 17,0 9,9 8 4 SSW 40 60
11.08.2018 15:00:00 16,0 9,0 9 5 S 40 60
11.08.2018 14:00:00 15,0 8,5 9 5 S 40 60
11.08.2018 13:00:00 14,0 9,4 9 5 SW 40 30
11.08.2018 12:00:00 13,0 9,1 5 3 S 40 0
11.08.2018 11:00:00 12,0 8,8 4 2 N 30 0
11.08.2018 10:00:00 11,2 8,2 5 3 NNW 0,9 0
11.08.2018 09:00:00 10,8 9,7 5 3 N 0,6 0
11.08.2018 08:00:00 10,0 9,2 4 2 NNW 0,3 0
11.08.2018 07:00:00 9,6 8,5 4 2 NNW 0,3 0
11.08.2018 06:00:00 9,7 8,1 4 2 SSW 0,9 -
11.08.2018 05:00:00 10,0 9,1 8 4 SSW 0,5 -
11.08.2018 04:00:00 10,4 9,8 11 6 SSW 0,1 -
11.08.2018 03:00:00 10,4 10,1 9 5 SSW 0,1 -
11.08.2018 02:00:00 10,6 10,3 5 3 SSW 0,1 -
11.08.2018 01:00:00 10,8 10,4 18 10 WSW 0,1 -
11.08.2018 00:00:00 11,0 10,5 22 12 SW 0,1 -
10.08.2018 23:00:00 11,0 10,2 24 13 SW 0,1 -
10.08.2018 22:00:00 11,0 11,0 28 15 SW - -
10.08.2018 21:00:00 11,6 11,3 29 16 SW 0,1 0
10.08.2018 20:00:00 12,8 11,0 28 15 SW 0,7 0
10.08.2018 19:00:00 13,6 10,4 34 18 SSW 15 48
10.08.2018 18:00:00 14,8 10,2 26 14 SW 35 60
10.08.2018 17:00:00 14,8 9,6 28 15 SW 25 60
10.08.2018 16:00:00 14,8 9,2 24 13 SSW 35 60
10.08.2018 15:00:00 15,4 10,0 22 12 SSW 35 60
10.08.2018 14:00:00 15,0 9,8 16 9 SSW 25 60
10.08.2018 13:00:00 14,6 9,8 11 6 SSW 20 30
10.08.2018 12:00:00 13,8 8,6 15 8 SSW 20 18
10.08.2018 11:00:00 13,8 9,0 16 9 WSW 20 12
10.08.2018 10:00:00 13,0 8,9 13 7 WSW 20 0
10.08.2018 09:00:00 12,0 9,0 13 7 WSW 20 0
10.08.2018 08:00:00 10,6 8,9 11 6 WSW 20 6
10.08.2018 07:00:00 10,4 7,7 13 7 WSW 20 -
10.08.2018 06:00:00 10,4 7,1 16 9 WSW 15 -
10.08.2018 05:00:00 11,0 6,2 18 10 WSW 10 -
10.08.2018 04:00:00 10,6 6,4 16 9 WSW 35 -
10.08.2018 03:00:00 10,6 4,7 15 8 WSW 35 -
10.08.2018 02:00:00 10,8 5,1 24 13 WSW 35 -
10.08.2018 01:00:00 10,2 4,6 22 12 WSW 35 -
10.08.2018 00:00:00 9,8 6,0 21 11 WSW 0,9 -
09.08.2018 23:00:00 10,8 9,4 31 17 WSW 0,5 -
09.08.2018 22:00:00 12,0 9,0 34 18 WSW 0,7 -
09.08.2018 21:00:00 13,2 9,1 28 15 WSW 10 0
09.08.2018 20:00:00 15,0 9,6 24 13 WSW 15 0
09.08.2018 19:00:00 15,8 10,4 18 10 SW 15 60
09.08.2018 18:00:00 16,0 7,7 21 11 SW 20 60
09.08.2018 17:00:00 16,2 8,2 18 10 SSW 20 60
09.08.2018 16:00:00 16,2 10,3 21 11 SW 20 18
09.08.2018 15:00:00 15,4 10,6 18 10 SW 20 0
09.08.2018 14:00:00 16,0 9,9 22 12 SW 25 60
09.08.2018 13:00:00 15,4 11,0 21 11 SSW 25 60
09.08.2018 12:00:00 14,8 11,0 13 7 SW 20 48
09.08.2018 11:00:00 13,6 10,4 9 5 SW 20 48
09.08.2018 10:00:00 12,4 9,4 8 4 SW 25 42
09.08.2018 09:00:00 11,8 11,3 5 3 SW 0,7 0
09.08.2018 08:00:00 11,0 10,7 5 3 SW 0,5 18
09.08.2018 07:00:00 10,4 9,8 5 3 SW 1,2 0
09.08.2018 06:00:00 10,7 9,8 5 3 SW 1,5 -
09.08.2018 05:00:00 11,0 10,7 8 4 SW 2,0 -
09.08.2018 04:00:00 11,4 9,5 9 5 SW 10 -
09.08.2018 03:00:00 11,4 8,4 11 6 SW 10 -
09.08.2018 02:00:00 11,8 8,8 9 5 SW 10 -
09.08.2018 01:00:00 12,0 8,3 5 3 SW 10 -
09.08.2018 00:00:00 12,4 6,4 9 5 SW 10 -
08.08.2018 23:00:00 12,4 7,1 18 10 SW 10 -
08.08.2018 22:00:00 12,6 11,3 22 12 SW 10 -
08.08.2018 21:00:00 12,7 9,9 31 17 SW 18 0
08.08.2018 20:00:00 13,8 11,3 28 15 SW 20 0
08.08.2018 19:00:00 15,8 11,0 24 13 W 20 0

tt = Température de l'air
td = dewpoint
ff = Vitesse du vent
dd = Direction du vent
vv = visibility
sd = Ensoleillement

stations d'obs. à proximité